createdAt,value
2022-08-26T00:01:29.640Z,14.68
2022-08-26T00:03:56.530Z,14.95
2022-08-26T00:06:23.120Z,14.77
2022-08-26T00:08:49.671Z,15.85
2022-08-26T00:11:16.431Z,15.07
2022-08-26T00:13:54.241Z,14.40
2022-08-26T00:16:21.064Z,14.38
2022-08-26T00:18:47.577Z,15.00
2022-08-26T00:21:14.468Z,14.95
2022-08-26T00:23:40.982Z,14.55
2022-08-26T00:26:08.340Z,15.80
2022-08-26T00:28:37.597Z,16.25
2022-08-26T00:31:04.476Z,16.33
2022-08-26T00:33:33.516Z,16.10
2022-08-26T00:36:01.406Z,16.38
2022-08-26T00:38:29.201Z,14.77
2022-08-26T00:40:57.418Z,14.68
2022-08-26T00:43:25.871Z,14.20
2022-08-26T00:46:04.485Z,14.90
2022-08-26T00:48:33.594Z,14.95
2022-08-26T00:51:10.742Z,13.98
2022-08-26T00:53:44.661Z,14.40
2022-08-26T00:56:27.229Z,14.27
2022-08-26T00:58:55.174Z,14.95
2022-08-26T01:01:22.907Z,15.30
2022-08-26T01:03:49.746Z,14.80
2022-08-26T01:06:16.334Z,14.98
2022-08-26T01:08:43.740Z,14.80
2022-08-26T01:11:11.772Z,14.90
2022-08-26T01:13:39.223Z,15.68
2022-08-26T01:16:08.341Z,15.27
2022-08-26T01:18:35.998Z,15.13
2022-08-26T01:21:18.161Z,14.97
2022-08-26T01:23:51.061Z,14.77
2022-08-26T01:26:33.364Z,14.93
2022-08-26T01:29:02.969Z,14.55
2022-08-26T01:31:35.363Z,14.48
2022-08-26T01:34:06.967Z,14.43
2022-08-26T01:36:37.139Z,14.82
2022-08-26T01:39:05.908Z,15.57
2022-08-26T01:41:35.182Z,14.55
2022-08-26T01:44:03.779Z,15.13
2022-08-26T01:46:30.733Z,14.77
2022-08-26T01:49:00.272Z,15.30
2022-08-26T01:51:27.857Z,15.00
2022-08-26T01:53:55.073Z,15.90
2022-08-26T01:56:23.578Z,16.08
2022-08-26T01:58:57.126Z,15.40
2022-08-26T02:01:29.143Z,14.80
2022-08-26T02:04:03.792Z,15.70
2022-08-26T02:06:30.897Z,14.32
2022-08-26T02:09:00.228Z,15.40
2022-08-26T02:11:27.606Z,15.40
2022-08-26T02:13:58.241Z,15.10
2022-08-26T02:16:27.444Z,15.15
2022-08-26T02:18:56.534Z,14.88
2022-08-26T02:21:24.939Z,15.23
2022-08-26T02:23:52.394Z,15.43
2022-08-26T02:26:26.956Z,16.92
2022-08-26T02:29:02.380Z,16.70
2022-08-26T02:31:29.139Z,16.52
2022-08-26T02:33:55.903Z,17.42
2022-08-26T02:36:28.612Z,16.30
2022-08-26T02:38:55.442Z,16.77
2022-08-26T02:41:23.108Z,17.50
2022-08-26T02:43:50.690Z,17.38
2022-08-26T02:46:21.647Z,17.65
2022-08-26T02:48:54.712Z,17.10
2022-08-26T02:51:21.247Z,15.88
2022-08-26T02:53:49.049Z,16.30
2022-08-26T02:56:15.572Z,15.98
2022-08-26T02:58:42.269Z,17.70
2022-08-26T03:01:19.479Z,16.70
2022-08-26T03:03:46.046Z,16.27
2022-08-26T03:06:14.810Z,17.10
2022-08-26T03:08:42.476Z,17.58
2022-08-26T03:11:11.251Z,17.20
2022-08-26T03:13:38.602Z,17.23
2022-08-26T03:16:07.025Z,17.42
2022-08-26T03:18:34.342Z,19.63
2022-08-26T03:21:14.362Z,18.85
2022-08-26T03:23:42.095Z,18.92
2022-08-26T03:26:13.268Z,19.83
2022-08-26T03:29:00.199Z,20.13
2022-08-26T03:31:26.806Z,21.65
2022-08-26T03:33:56.576Z,19.95
2022-08-26T03:36:26.600Z,20.85
2022-08-26T03:38:53.570Z,20.40
2022-08-26T03:41:21.362Z,20.27
2022-08-26T03:43:50.714Z,19.50
2022-08-26T03:46:18.433Z,20.90
2022-08-26T03:48:45.788Z,20.77
2022-08-26T03:51:19.055Z,21.23
2022-08-26T03:53:46.316Z,21.10
2022-08-26T03:56:12.849Z,21.83
2022-08-26T03:58:39.491Z,20.85
2022-08-26T04:01:09.584Z,21.50
2022-08-26T04:03:54.829Z,22.33
2022-08-26T04:06:21.467Z,22.25
2022-08-26T04:08:48.109Z,23.70
2022-08-26T04:11:19.969Z,22.15
2022-08-26T04:13:47.324Z,21.70
2022-08-26T04:16:15.531Z,20.20
2022-08-26T04:18:46.565Z,20.77
2022-08-26T04:21:15.182Z,21.38
2022-08-26T04:23:47.837Z,22.10
2022-08-26T04:26:15.209Z,21.85
2022-08-26T04:28:43.343Z,22.27
2022-08-26T04:31:17.751Z,21.73
2022-08-26T04:33:47.493Z,21.02
2022-08-26T04:36:16.258Z,21.77
2022-08-26T04:38:43.187Z,21.58
2022-08-26T04:41:15.066Z,20.97
2022-08-26T04:43:43.503Z,21.52
2022-08-26T04:46:13.083Z,22.65
2022-08-26T04:48:40.942Z,22.25
2022-08-26T04:51:08.013Z,21.58
2022-08-26T04:53:34.828Z,21.23
2022-08-26T04:56:02.927Z,22.80
2022-08-26T04:58:31.429Z,22.05
2022-08-26T05:00:59.910Z,22.58
2022-08-26T05:03:30.514Z,21.45
2022-08-26T05:05:58.380Z,21.37
2022-08-26T05:08:25.112Z,20.63
2022-08-26T05:10:56.234Z,20.23
2022-08-26T05:13:26.280Z,20.85
2022-08-26T05:15:53.191Z,20.67
2022-08-26T05:18:23.911Z,19.83
2022-08-26T05:20:54.604Z,21.17
2022-08-26T05:23:22.842Z,22.23
2022-08-26T05:25:58.961Z,20.83
2022-08-26T05:28:28.401Z,19.80
2022-08-26T05:30:58.158Z,20.83
2022-08-26T05:33:25.073Z,21.00
2022-08-26T05:35:52.057Z,22.60
2022-08-26T05:38:20.719Z,21.80
2022-08-26T05:40:52.761Z,21.98
2022-08-26T05:43:20.212Z,21.03
2022-08-26T05:45:49.193Z,22.17
2022-08-26T05:48:18.266Z,26.13
2022-08-26T05:50:48.147Z,24.02
2022-08-26T05:53:17.597Z,24.17
2022-08-26T05:55:46.784Z,24.57
2022-08-26T05:58:13.723Z,24.42
2022-08-26T06:00:40.555Z,25.17
2022-08-26T06:03:08.687Z,23.60
2022-08-26T06:05:41.655Z,24.35
2022-08-26T06:08:11.407Z,22.70
2022-08-26T06:10:55.716Z,22.25
2022-08-26T06:13:30.281Z,22.70
2022-08-26T06:15:59.410Z,24.00
2022-08-26T06:18:32.693Z,21.60
2022-08-26T06:20:59.805Z,22.93
2022-08-26T06:23:47.112Z,22.92
2022-08-26T06:26:16.553Z,23.58
2022-08-26T06:28:45.609Z,25.23
2022-08-26T06:31:12.763Z,24.10
2022-08-26T06:33:39.406Z,23.10
2022-08-26T06:36:06.723Z,18.27
2022-08-26T06:38:33.711Z,19.05
2022-08-26T06:41:02.961Z,17.45
2022-08-26T06:43:29.733Z,17.05
2022-08-26T06:46:05.467Z,16.53
2022-08-26T06:48:32.155Z,15.63
2022-08-26T06:51:09.218Z,16.65
2022-08-26T06:53:37.269Z,16.83
2022-08-26T06:56:05.540Z,18.63
2022-08-26T06:58:33.184Z,18.73
2022-08-26T07:01:03.714Z,20.20
2022-08-26T07:03:39.828Z,21.75
2022-08-26T07:06:08.095Z,24.50
2022-08-26T07:08:34.641Z,24.20
2022-08-26T07:11:05.615Z,23.17
2022-08-26T07:13:32.143Z,23.88
2022-08-26T07:15:59.046Z,22.45
2022-08-26T07:18:30.234Z,22.55
2022-08-26T07:20:56.738Z,23.65
2022-08-26T07:23:23.979Z,21.40
2022-08-26T07:25:50.930Z,21.40
2022-08-26T07:28:17.528Z,22.48
2022-08-26T07:30:44.100Z,20.27
2022-08-26T07:33:10.892Z,20.27
2022-08-26T07:35:37.995Z,18.73
2022-08-26T07:38:04.460Z,19.92
2022-08-26T07:40:32.077Z,18.95
2022-08-26T07:42:58.633Z,18.77
2022-08-26T07:45:27.526Z,18.92
2022-08-26T07:47:54.624Z,19.27
2022-08-26T07:50:22.464Z,18.75
2022-08-26T07:53:10.829Z,18.45
2022-08-26T07:55:37.529Z,17.92
2022-08-26T07:58:05.589Z,18.17
2022-08-26T08:00:33.810Z,18.13
2022-08-26T08:03:02.256Z,18.38
2022-08-26T08:05:33.525Z,19.13
2022-08-26T08:08:26.213Z,18.65
2022-08-26T08:10:48.954Z,17.40
2022-08-26T08:13:15.663Z,16.93
2022-08-26T08:15:42.288Z,17.02
2022-08-26T08:18:15.320Z,15.48
2022-08-26T08:20:47.558Z,14.55
2022-08-26T08:23:26.015Z,13.32
2022-08-26T08:26:01.459Z,12.03
2022-08-26T08:28:28.356Z,11.55
2022-08-26T08:30:55.007Z,10.48
2022-08-26T08:33:21.708Z,10.68
2022-08-26T08:35:48.515Z,10.15
2022-08-26T08:38:17.170Z,10.00
2022-08-26T08:40:46.114Z,9.85
2022-08-26T08:43:14.878Z,10.02
2022-08-26T08:45:48.176Z,9.85
2022-08-26T08:48:27.648Z,10.60
2022-08-26T08:51:04.498Z,10.33
2022-08-26T08:53:35.353Z,10.57
2022-08-26T08:56:18.399Z,10.05
2022-08-26T08:59:04.327Z,10.18
2022-08-26T09:01:42.400Z,10.00
2022-08-26T09:04:32.894Z,9.87
2022-08-26T09:07:01.424Z,10.52
2022-08-26T09:09:42.027Z,10.32
2022-08-26T09:12:21.062Z,10.63
2022-08-26T09:15:13.127Z,9.77
2022-08-26T09:18:08.567Z,10.20
2022-08-26T09:20:47.553Z,9.65
2022-08-26T09:23:15.532Z,9.30
2022-08-26T09:25:52.544Z,9.00
2022-08-26T09:28:22.973Z,8.40
2022-08-26T09:31:19.672Z,8.60
2022-08-26T09:33:48.599Z,7.70
2022-08-26T09:36:41.178Z,7.68
2022-08-26T09:39:37.664Z,7.20
2022-08-26T09:42:04.544Z,6.60
2022-08-26T09:44:31.762Z,6.70
2022-08-26T09:47:02.212Z,6.32
2022-08-26T09:49:35.964Z,6.75
2022-08-26T09:52:21.771Z,6.53
2022-08-26T09:55:01.545Z,6.47
2022-08-26T09:57:35.930Z,6.23
2022-08-26T10:00:26.372Z,7.03
2022-08-26T10:02:56.039Z,6.63
2022-08-26T10:05:58.629Z,6.43
2022-08-26T10:08:34.330Z,6.35
2022-08-26T10:11:04.488Z,6.27
2022-08-26T10:13:31.244Z,6.88
2022-08-26T10:16:33.348Z,6.85
2022-08-26T10:19:08.694Z,6.55
2022-08-26T10:22:01.950Z,7.10
2022-08-26T10:24:32.289Z,7.00
2022-08-26T10:27:20.931Z,6.35
2022-08-26T10:29:50.099Z,6.90
2022-08-26T10:32:41.770Z,6.90
2022-08-26T10:35:11.114Z,6.55
2022-08-26T10:37:40.485Z,6.80
2022-08-26T10:40:08.630Z,6.50
2022-08-26T10:42:38.031Z,6.90
2022-08-26T10:45:15.567Z,5.47
2022-08-26T10:48:02.333Z,5.80
2022-08-26T10:50:55.294Z,5.80
2022-08-26T10:53:34.321Z,5.82
2022-08-26T10:56:38.389Z,6.05
2022-08-26T10:59:18.950Z,5.38
2022-08-26T11:01:54.804Z,5.57
2022-08-26T11:04:48.704Z,5.87
2022-08-26T11:07:46.088Z,5.80
2022-08-26T11:10:18.759Z,5.20
2022-08-26T11:12:49.499Z,5.38
2022-08-26T11:15:24.367Z,5.43
2022-08-26T11:17:51.207Z,5.13
2022-08-26T11:20:24.295Z,5.15
2022-08-26T11:22:52.799Z,5.47
2022-08-26T11:25:29.700Z,4.88
2022-08-26T11:28:06.097Z,5.13
2022-08-26T11:30:37.871Z,5.50
2022-08-26T11:33:06.317Z,4.97
2022-08-26T11:35:45.603Z,5.88
2022-08-26T11:38:25.453Z,4.70
2022-08-26T11:40:58.115Z,5.05
2022-08-26T11:43:26.068Z,4.80
2022-08-26T11:46:01.278Z,4.57
2022-08-26T11:48:33.386Z,5.20
2022-08-26T11:51:20.889Z,5.13
2022-08-26T11:53:47.455Z,4.90
2022-08-26T11:56:34.376Z,3.73
2022-08-26T11:59:09.997Z,3.40
2022-08-26T12:01:40.422Z,3.63
2022-08-26T12:04:10.658Z,3.75
2022-08-26T12:06:47.717Z,3.60
2022-08-26T12:09:25.232Z,3.20
2022-08-26T12:11:58.033Z,3.38
2022-08-26T12:14:27.666Z,3.50
2022-08-26T12:16:55.048Z,3.40
2022-08-26T12:19:33.821Z,3.50
2022-08-26T12:22:27.571Z,3.43
2022-08-26T12:25:00.149Z,3.75
2022-08-26T12:27:39.756Z,3.65
2022-08-26T12:30:19.216Z,3.80
2022-08-26T12:33:03.585Z,3.42
2022-08-26T12:35:51.446Z,3.63
2022-08-26T12:38:21.490Z,3.80
2022-08-26T12:40:50.345Z,3.78
2022-08-26T12:43:42.521Z,3.30
2022-08-26T12:46:11.990Z,3.70
2022-08-26T12:48:41.634Z,3.77
2022-08-26T12:51:22.878Z,3.72
2022-08-26T12:53:49.478Z,3.50
2022-08-26T12:56:30.483Z,3.80
2022-08-26T12:59:25.165Z,3.83
2022-08-26T13:01:54.213Z,3.57
2022-08-26T13:04:42.617Z,3.95
2022-08-26T13:07:24.702Z,3.67
2022-08-26T13:09:54.618Z,3.53
2022-08-26T13:12:32.626Z,3.40
2022-08-26T13:15:00.652Z,3.63
2022-08-26T13:17:28.418Z,3.55
2022-08-26T13:19:57.987Z,3.80
2022-08-26T13:22:26.730Z,3.97
2022-08-26T13:24:55.739Z,4.22
2022-08-26T13:27:26.402Z,4.20
2022-08-26T13:29:53.460Z,4.15
2022-08-26T13:32:27.325Z,4.13
2022-08-26T13:34:55.821Z,4.47
2022-08-26T13:37:24.361Z,4.45
2022-08-26T13:40:01.425Z,5.17
2022-08-26T13:42:27.981Z,5.18
2022-08-26T13:44:58.045Z,5.28
2022-08-26T13:47:26.089Z,5.40
2022-08-26T13:49:55.208Z,5.57
2022-08-26T13:52:29.182Z,5.20
2022-08-26T13:55:01.651Z,5.60
2022-08-26T13:57:30.053Z,5.72
2022-08-26T13:59:59.470Z,5.70
2022-08-26T14:02:27.597Z,5.97
2022-08-26T14:04:55.324Z,5.03
2022-08-26T14:07:22.522Z,5.00
2022-08-26T14:09:49.413Z,5.25
2022-08-26T14:12:16.551Z,4.97
2022-08-26T14:14:44.425Z,4.90
2022-08-26T14:17:13.659Z,4.50
2022-08-26T14:19:44.129Z,4.40
2022-08-26T14:22:10.720Z,4.45
2022-08-26T14:24:37.295Z,4.32
2022-08-26T14:27:04.033Z,4.10
2022-08-26T14:29:30.607Z,4.20
2022-08-26T14:31:58.707Z,4.70
2022-08-26T14:34:25.458Z,4.30
2022-08-26T14:36:52.016Z,4.43
2022-08-26T14:39:21.812Z,3.95
2022-08-26T14:41:55.044Z,3.83
2022-08-26T14:44:25.082Z,4.03
2022-08-26T14:46:52.910Z,4.10
2022-08-26T14:49:20.507Z,4.65
2022-08-26T14:51:47.613Z,4.97
2022-08-26T14:54:17.870Z,4.60
2022-08-26T14:56:50.275Z,5.13
2022-08-26T14:59:20.283Z,5.05
2022-08-26T15:01:47.322Z,5.38
2022-08-26T15:04:14.984Z,5.15
2022-08-26T15:06:41.741Z,4.57
2022-08-26T15:09:08.481Z,4.72
2022-08-26T15:11:35.285Z,4.80
2022-08-26T15:14:02.402Z,4.82
2022-08-26T15:16:29.296Z,4.35
2022-08-26T15:18:56.681Z,4.67
2022-08-26T15:21:24.272Z,4.50
2022-08-26T15:23:51.911Z,4.72
2022-08-26T15:26:19.409Z,4.38
2022-08-26T15:28:46.311Z,4.10
2022-08-26T15:31:13.272Z,4.40
2022-08-26T15:33:40.442Z,4.40
2022-08-26T15:36:08.114Z,4.57
2022-08-26T15:38:38.197Z,4.45
2022-08-26T15:41:06.029Z,4.10
2022-08-26T15:43:32.764Z,3.93
2022-08-26T15:45:59.340Z,4.70
2022-08-26T15:48:27.844Z,4.07
2022-08-26T15:50:57.392Z,4.40
2022-08-26T15:53:26.373Z,4.32
2022-08-26T15:55:55.087Z,4.37
2022-08-26T15:58:24.223Z,4.35
2022-08-26T16:00:53.857Z,5.35
2022-08-26T16:03:20.981Z,4.47
2022-08-26T16:05:48.145Z,4.35
2022-08-26T16:08:15.474Z,4.30
2022-08-26T16:10:49.750Z,5.15
2022-08-26T16:13:19.197Z,4.60
2022-08-26T16:15:47.640Z,4.38
2022-08-26T16:18:15.690Z,5.15
2022-08-26T16:21:12.340Z,5.07
2022-08-26T16:23:38.706Z,4.70
2022-08-26T16:26:14.521Z,5.22
2022-08-26T16:28:41.460Z,5.00
2022-08-26T16:31:10.642Z,4.65
2022-08-26T16:33:40.714Z,4.20
2022-08-26T16:36:08.252Z,4.88
2022-08-26T16:38:35.606Z,4.80
2022-08-26T16:41:02.428Z,4.43
2022-08-26T16:43:29.790Z,5.32
2022-08-26T16:45:56.600Z,4.93
2022-08-26T16:48:25.258Z,4.85
2022-08-26T16:50:51.977Z,5.65
2022-08-26T16:53:19.054Z,5.63
2022-08-26T16:55:47.049Z,5.90
2022-08-26T16:58:13.682Z,6.37
2022-08-26T17:00:40.378Z,6.20
2022-08-26T17:03:07.097Z,6.55
2022-08-26T17:05:33.757Z,7.20
2022-08-26T17:08:00.699Z,7.07
2022-08-26T17:10:34.853Z,6.67
2022-08-26T17:13:01.423Z,6.88
2022-08-26T17:15:28.422Z,8.40
2022-08-26T17:17:55.451Z,7.95
2022-08-26T17:20:23.373Z,6.97
2022-08-26T17:22:51.708Z,6.53
2022-08-26T17:25:24.965Z,6.75
2022-08-26T17:27:51.695Z,7.22
2022-08-26T17:30:19.339Z,7.22
2022-08-26T17:32:47.335Z,7.00
2022-08-26T17:35:15.772Z,7.30
2022-08-26T17:37:43.138Z,7.55
2022-08-26T17:40:15.419Z,7.72
2022-08-26T17:42:42.167Z,8.25
2022-08-26T17:45:09.248Z,7.82
2022-08-26T17:47:36.031Z,7.27
2022-08-26T17:50:04.485Z,7.78
2022-08-26T17:52:31.307Z,8.40
2022-08-26T17:54:58.371Z,10.45
2022-08-26T17:57:25.938Z,8.05
2022-08-26T17:59:53.659Z,7.43
2022-08-26T18:02:21.178Z,7.65
2022-08-26T18:04:47.889Z,8.77
2022-08-26T18:07:14.915Z,8.73
2022-08-26T18:09:41.528Z,8.05
2022-08-26T18:12:08.373Z,7.43
2022-08-26T18:14:35.291Z,8.15
2022-08-26T18:17:02.040Z,7.47
2022-08-26T18:19:29.805Z,7.00
2022-08-26T18:21:56.845Z,8.02
2022-08-26T18:24:23.721Z,8.60
2022-08-26T18:26:51.128Z,8.18
2022-08-26T18:29:19.364Z,8.63
2022-08-26T18:31:45.936Z,8.52
2022-08-26T18:34:15.656Z,8.55
2022-08-26T18:36:43.022Z,8.63
2022-08-26T18:39:10.805Z,8.80
2022-08-26T18:41:44.053Z,8.45
2022-08-26T18:44:13.704Z,8.77
2022-08-26T18:46:41.079Z,7.97
2022-08-26T18:49:08.354Z,8.57
2022-08-26T18:51:35.405Z,8.90
2022-08-26T18:54:05.265Z,9.10
2022-08-26T18:56:33.505Z,8.80
2022-08-26T18:59:00.523Z,8.65
2022-08-26T19:01:28.522Z,9.00
2022-08-26T19:03:56.895Z,8.73
2022-08-26T19:06:25.505Z,8.40
2022-08-26T19:08:52.090Z,9.20
2022-08-26T19:11:32.525Z,8.82
2022-08-26T19:14:08.709Z,9.60
2022-08-26T19:16:36.163Z,10.32
2022-08-26T19:19:03.833Z,11.13
2022-08-26T19:21:33.142Z,10.50
2022-08-26T19:24:02.345Z,10.45
2022-08-26T19:26:30.540Z,10.10
2022-08-26T19:29:01.222Z,10.50
2022-08-26T19:31:28.254Z,10.38
2022-08-26T19:33:56.624Z,9.70
2022-08-26T19:36:25.200Z,10.77
2022-08-26T19:38:51.865Z,10.97
2022-08-26T19:41:24.543Z,10.43
2022-08-26T19:43:55.404Z,10.45
2022-08-26T19:46:26.607Z,9.77
2022-08-26T19:48:55.696Z,9.90
2022-08-26T19:51:25.939Z,10.10
2022-08-26T19:53:54.067Z,9.55
2022-08-26T19:56:21.469Z,10.70
2022-08-26T19:58:48.811Z,10.48
2022-08-26T20:01:16.110Z,9.60
2022-08-26T20:03:43.485Z,9.67
2022-08-26T20:06:12.007Z,10.30
2022-08-26T20:08:39.581Z,10.90
2022-08-26T20:11:12.478Z,10.13
2022-08-26T20:13:39.784Z,10.30
2022-08-26T20:16:06.927Z,9.70
2022-08-26T20:18:52.478Z,10.20
2022-08-26T20:21:29.334Z,9.82
2022-08-26T20:24:02.609Z,10.73
2022-08-26T20:26:31.806Z,10.73
2022-08-26T20:28:58.752Z,10.63
2022-08-26T20:31:26.359Z,10.35
2022-08-26T20:33:53.587Z,9.85
2022-08-26T20:36:22.231Z,10.52
2022-08-26T20:38:50.243Z,10.18
2022-08-26T20:41:17.604Z,9.80
2022-08-26T20:43:44.312Z,10.32
2022-08-26T20:46:18.142Z,10.25
2022-08-26T20:48:47.820Z,11.00
2022-08-26T20:51:16.175Z,11.07
2022-08-26T20:53:44.264Z,9.90
2022-08-26T20:56:12.723Z,10.15
2022-08-26T20:58:39.830Z,10.45
2022-08-26T21:01:08.157Z,9.98
2022-08-26T21:03:35.794Z,10.25
2022-08-26T21:06:04.248Z,9.93
2022-08-26T21:08:33.249Z,9.60
2022-08-26T21:11:00.893Z,9.52
2022-08-26T21:13:42.861Z,9.68
2022-08-26T21:16:15.151Z,9.57
2022-08-26T21:18:42.848Z,8.60
2022-08-26T21:21:10.626Z,8.95
2022-08-26T21:23:37.791Z,9.20
2022-08-26T21:26:06.403Z,8.88
2022-08-26T21:28:34.987Z,8.88
2022-08-26T21:31:04.363Z,8.17
2022-08-26T21:33:31.145Z,8.68
2022-08-26T21:35:57.717Z,7.93
2022-08-26T21:38:24.268Z,8.27
2022-08-26T21:41:01.685Z,7.82
2022-08-26T21:43:35.552Z,7.87
2022-08-26T21:46:16.954Z,7.35
2022-08-26T21:48:49.958Z,6.47
2022-08-26T21:51:19.146Z,7.10
2022-08-26T21:53:45.689Z,6.90
2022-08-26T21:56:14.806Z,6.80
2022-08-26T21:58:41.594Z,7.03
2022-08-26T22:01:10.369Z,7.43
2022-08-26T22:03:47.022Z,6.80
2022-08-26T22:06:17.708Z,6.45
2022-08-26T22:08:44.246Z,7.23
2022-08-26T22:11:11.027Z,7.00
2022-08-26T22:13:39.363Z,7.18
2022-08-26T22:16:06.827Z,7.03
2022-08-26T22:18:34.197Z,7.07
2022-08-26T22:21:04.597Z,7.57
2022-08-26T22:23:31.353Z,6.40
2022-08-26T22:25:58.347Z,6.88
2022-08-26T22:28:26.044Z,6.70
2022-08-26T22:30:52.780Z,6.80
2022-08-26T22:33:19.893Z,6.23
2022-08-26T22:35:48.998Z,6.63
2022-08-26T22:38:16.132Z,7.60
2022-08-26T22:40:48.427Z,7.18
2022-08-26T22:43:15.304Z,7.30
2022-08-26T22:45:43.885Z,6.27
2022-08-26T22:48:12.227Z,6.53
2022-08-26T22:50:38.924Z,6.97
2022-08-26T22:53:05.446Z,7.07
2022-08-26T22:55:32.079Z,7.32
2022-08-26T22:57:58.774Z,7.10
2022-08-26T23:00:32.023Z,6.88
2022-08-26T23:02:59.152Z,7.40
2022-08-26T23:05:25.772Z,7.60
2022-08-26T23:07:52.488Z,7.70
2022-08-26T23:10:19.112Z,7.60
2022-08-26T23:12:45.708Z,8.15
2022-08-26T23:15:12.725Z,7.60
2022-08-26T23:17:39.536Z,7.20
2022-08-26T23:20:10.035Z,7.10
2022-08-26T23:22:37.159Z,6.70
2022-08-26T23:25:07.786Z,6.22
2022-08-26T23:27:41.049Z,6.43
2022-08-26T23:30:12.695Z,6.43
2022-08-26T23:32:39.278Z,7.05
2022-08-26T23:35:06.371Z,6.40
2022-08-26T23:37:38.978Z,7.03
2022-08-26T23:40:20.780Z,7.32
2022-08-26T23:42:47.649Z,7.20
2022-08-26T23:45:14.670Z,6.80
2022-08-26T23:47:41.754Z,6.83
2022-08-26T23:50:09.068Z,6.80
2022-08-26T23:52:54.543Z,6.90
2022-08-26T23:55:21.321Z,6.78
2022-08-26T23:57:47.917Z,7.07
